createdAt,value
2022-12-11T00:01:20.779Z,73.47
2022-12-11T00:03:48.855Z,73.90
2022-12-11T00:06:18.366Z,74.22
2022-12-11T00:08:45.860Z,74.27
2022-12-11T00:11:15.463Z,73.68
2022-12-11T00:13:43.504Z,72.81
2022-12-11T00:16:10.916Z,75.40
2022-12-11T00:18:38.669Z,74.77
2022-12-11T00:21:08.392Z,73.19
2022-12-11T00:23:36.254Z,73.68
2022-12-11T00:26:13.732Z,73.81
2022-12-11T00:28:41.471Z,72.18
2022-12-11T00:31:11.851Z,72.38
2022-12-11T00:33:43.055Z,73.49
2022-12-11T00:36:18.892Z,74.76
2022-12-11T00:38:46.817Z,73.10
2022-12-11T00:41:14.721Z,73.05
2022-12-11T00:43:42.152Z,73.26
2022-12-11T00:46:10.290Z,73.15
2022-12-11T00:48:38.039Z,72.79
2022-12-11T00:51:05.963Z,72.06
2022-12-11T00:53:33.390Z,72.54
2022-12-11T00:56:01.019Z,72.75
2022-12-11T00:58:28.501Z,72.13
2022-12-11T01:00:55.854Z,72.99
2022-12-11T01:03:23.531Z,74.37
2022-12-11T01:05:52.964Z,73.96
2022-12-11T01:08:20.597Z,73.92
2022-12-11T01:10:48.393Z,74.76
2022-12-11T01:13:16.071Z,75.28
2022-12-11T01:15:45.185Z,74.48
2022-12-11T01:18:14.296Z,74.04
2022-12-11T01:20:42.648Z,74.46
2022-12-11T01:23:12.984Z,75.95
2022-12-11T01:25:41.047Z,75.05
2022-12-11T01:28:08.770Z,73.83
2022-12-11T01:30:36.543Z,73.20
2022-12-11T01:33:04.282Z,73.08
2022-12-11T01:35:31.721Z,72.59
2022-12-11T01:37:59.367Z,72.42
2022-12-11T01:40:27.029Z,72.14
2022-12-11T01:42:54.354Z,72.69
2022-12-11T01:45:21.573Z,72.21
2022-12-11T01:47:49.912Z,71.90
2022-12-11T01:50:17.428Z,71.35
2022-12-11T01:52:47.442Z,70.96
2022-12-11T01:55:15.799Z,72.03
2022-12-11T01:57:45.127Z,71.22
2022-12-11T02:00:13.089Z,71.82
2022-12-11T02:02:40.794Z,71.54
2022-12-11T02:05:09.391Z,71.97
2022-12-11T02:08:00.990Z,71.95
2022-12-11T02:10:47.097Z,71.50
2022-12-11T02:13:21.675Z,70.83
2022-12-11T02:16:00.634Z,70.22
2022-12-11T02:18:46.373Z,69.70
2022-12-11T02:21:20.984Z,71.01
2022-12-11T02:24:23.746Z,71.81
2022-12-11T02:27:14.726Z,70.62
2022-12-11T02:29:55.112Z,70.25
2022-12-11T02:32:26.201Z,70.17
2022-12-11T02:35:00.331Z,70.04
2022-12-11T02:37:29.942Z,69.75
2022-12-11T02:39:57.580Z,69.20
2022-12-11T02:42:27.636Z,69.14
2022-12-11T02:44:56.942Z,70.19
2022-12-11T02:47:25.711Z,71.03
2022-12-11T02:49:54.565Z,70.03
2022-12-11T02:52:23.391Z,69.76
2022-12-11T02:54:52.654Z,69.98
2022-12-11T02:57:31.691Z,70.55
2022-12-11T02:59:59.475Z,70.49
2022-12-11T03:02:27.047Z,70.94
2022-12-11T03:04:54.422Z,70.70
2022-12-11T03:07:24.999Z,71.97
2022-12-11T03:09:53.120Z,71.64
2022-12-11T03:12:28.051Z,71.49
2022-12-11T03:14:56.610Z,72.50
2022-12-11T03:17:31.168Z,71.97
2022-12-11T03:20:35.624Z,72.30
2022-12-11T03:23:33.820Z,71.19
2022-12-11T03:26:04.602Z,71.60
2022-12-11T03:28:33.611Z,70.69
2022-12-11T03:31:09.208Z,71.25
2022-12-11T03:33:39.139Z,71.42
2022-12-11T03:36:10.833Z,72.67
2022-12-11T03:38:46.506Z,71.94
2022-12-11T03:41:15.255Z,71.56
2022-12-11T03:43:42.918Z,72.22
2022-12-11T03:46:10.949Z,72.06
2022-12-11T03:48:41.699Z,71.15
2022-12-11T03:51:09.847Z,70.93
2022-12-11T03:53:37.913Z,71.00
2022-12-11T03:56:06.822Z,72.63
2022-12-11T03:58:34.180Z,72.71
2022-12-11T04:01:02.027Z,73.48
2022-12-11T04:03:29.653Z,73.75
2022-12-11T04:05:57.569Z,73.05
2022-12-11T04:08:25.019Z,72.51
2022-12-11T04:11:11.687Z,74.32
2022-12-11T04:13:39.888Z,73.63
2022-12-11T04:16:07.731Z,74.50
2022-12-11T04:18:53.504Z,74.60
2022-12-11T04:21:40.113Z,75.15
2022-12-11T04:24:16.750Z,73.75
2022-12-11T04:26:46.093Z,74.49
2022-12-11T04:29:14.463Z,74.76
2022-12-11T04:31:41.930Z,74.03
2022-12-11T04:34:09.728Z,73.84
2022-12-11T04:36:37.765Z,74.83
2022-12-11T04:39:05.957Z,74.65
2022-12-11T04:41:34.248Z,73.70
2022-12-11T04:44:01.816Z,75.44
2022-12-11T04:46:29.260Z,76.01
2022-12-11T04:48:58.047Z,75.68
2022-12-11T04:51:25.908Z,76.37
2022-12-11T04:53:53.435Z,75.58
2022-12-11T04:56:21.503Z,76.56
2022-12-11T04:58:49.570Z,76.06
2022-12-11T05:01:19.877Z,74.89
2022-12-11T05:03:48.033Z,75.04
2022-12-11T05:06:15.803Z,76.36
2022-12-11T05:08:43.858Z,75.98
2022-12-11T05:11:13.388Z,76.73
2022-12-11T05:13:40.801Z,77.22
2022-12-11T05:16:09.810Z,77.20
2022-12-11T05:18:37.662Z,76.25
2022-12-11T05:21:07.700Z,75.66
2022-12-11T05:23:35.091Z,76.14
2022-12-11T05:26:05.223Z,76.57
2022-12-11T05:28:35.692Z,76.00
2022-12-11T05:31:12.158Z,77.65
2022-12-11T05:33:39.566Z,76.71
2022-12-11T05:36:07.875Z,77.28
2022-12-11T05:38:35.476Z,77.45
2022-12-11T05:41:05.002Z,78.46
2022-12-11T05:43:34.474Z,77.78
2022-12-11T05:46:15.295Z,78.62
2022-12-11T05:48:44.131Z,77.81
2022-12-11T05:51:12.523Z,76.62
2022-12-11T05:53:40.888Z,76.78
2022-12-11T05:56:12.470Z,76.96
2022-12-11T05:58:40.793Z,77.71
2022-12-11T06:01:14.181Z,77.55
2022-12-11T06:03:41.820Z,77.14
2022-12-11T06:06:09.261Z,76.67
2022-12-11T06:08:36.624Z,76.84
2022-12-11T06:11:05.056Z,77.35
2022-12-11T06:13:32.654Z,76.23
2022-12-11T06:16:05.036Z,77.45
2022-12-11T06:18:36.439Z,77.34
2022-12-11T06:21:11.624Z,76.87
2022-12-11T06:23:39.210Z,77.28
2022-12-11T06:26:07.104Z,78.13
2022-12-11T06:28:34.523Z,76.57
2022-12-11T06:31:02.284Z,75.82
2022-12-11T06:33:30.185Z,77.20
2022-12-11T06:36:02.094Z,77.19
2022-12-11T06:38:29.719Z,77.38
2022-12-11T06:41:02.568Z,76.96
2022-12-11T06:43:30.771Z,77.55
2022-12-11T06:46:03.820Z,77.66
2022-12-11T06:48:32.049Z,77.15
2022-12-11T06:50:59.418Z,76.84
2022-12-11T06:53:26.762Z,77.63
2022-12-11T06:55:54.381Z,77.29
2022-12-11T06:58:21.796Z,77.11
2022-12-11T07:00:49.154Z,75.85
2022-12-11T07:03:16.778Z,76.79
2022-12-11T07:05:44.071Z,76.39
2022-12-11T07:08:11.497Z,75.97
2022-12-11T07:10:39.140Z,76.46
2022-12-11T07:13:06.440Z,76.67
2022-12-11T07:15:37.678Z,75.67
2022-12-11T07:18:07.930Z,76.71
2022-12-11T07:20:35.657Z,76.35
2022-12-11T07:23:03.016Z,75.47
2022-12-11T07:25:30.591Z,74.92
2022-12-11T07:27:58.122Z,75.91
2022-12-11T07:30:25.439Z,75.96
2022-12-11T07:32:53.095Z,74.81
2022-12-11T07:35:20.517Z,75.83
2022-12-11T07:37:47.844Z,76.46
2022-12-11T07:40:15.520Z,75.67
2022-12-11T07:42:46.168Z,75.03
2022-12-11T07:45:14.040Z,75.67
2022-12-11T07:47:41.889Z,73.98
2022-12-11T07:50:09.556Z,73.07
2022-12-11T07:52:37.051Z,72.29
2022-12-11T07:55:05.164Z,73.44
2022-12-11T07:57:32.505Z,72.70
2022-12-11T07:59:59.874Z,73.57
2022-12-11T08:02:30.243Z,73.99
2022-12-11T08:05:01.659Z,73.00
2022-12-11T08:07:29.007Z,72.76
2022-12-11T08:09:56.305Z,71.64
2022-12-11T08:12:23.887Z,72.96
2022-12-11T08:14:51.474Z,71.81
2022-12-11T08:17:18.779Z,71.78
2022-12-11T08:19:46.342Z,71.82
2022-12-11T08:22:14.525Z,71.09
2022-12-11T08:24:41.819Z,70.49
2022-12-11T08:27:09.402Z,71.01
2022-12-11T08:29:37.264Z,70.87
2022-12-11T08:32:10.531Z,70.46
2022-12-11T08:34:40.323Z,71.23
2022-12-11T08:37:07.622Z,69.31
2022-12-11T08:39:35.039Z,70.47
2022-12-11T08:42:02.651Z,70.85
2022-12-11T08:44:30.100Z,71.03
2022-12-11T08:46:57.704Z,71.20
2022-12-11T08:49:27.616Z,71.05
2022-12-11T08:51:58.551Z,74.65
2022-12-11T08:54:26.156Z,71.10
2022-12-11T08:56:57.822Z,69.59
2022-12-11T08:59:25.885Z,68.93
2022-12-11T09:01:55.066Z,69.09
2022-12-11T09:04:23.123Z,69.21
2022-12-11T09:06:53.347Z,69.17
2022-12-11T09:09:20.708Z,68.90
2022-12-11T09:11:48.191Z,67.77
2022-12-11T09:14:16.307Z,67.94
2022-12-11T09:16:43.681Z,67.74
2022-12-11T09:19:16.442Z,68.64
2022-12-11T09:21:44.382Z,68.85
2022-12-11T09:24:12.663Z,68.01
2022-12-11T09:26:40.056Z,68.97
2022-12-11T09:29:07.788Z,69.21
2022-12-11T09:31:36.334Z,69.22
2022-12-11T09:34:07.145Z,69.45
2022-12-11T09:36:35.112Z,69.99
2022-12-11T09:39:04.749Z,69.16
2022-12-11T09:41:48.270Z,68.98
2022-12-11T09:44:32.917Z,70.28
2022-12-11T09:47:00.787Z,70.67
2022-12-11T09:49:38.291Z,69.31
2022-12-11T09:52:17.204Z,68.00
2022-12-11T09:54:51.239Z,68.64
2022-12-11T09:57:30.417Z,69.15
2022-12-11T10:00:29.344Z,68.75
2022-12-11T10:03:15.744Z,69.21
2022-12-11T10:06:04.909Z,70.31
2022-12-11T10:08:59.628Z,69.73
2022-12-11T10:11:30.966Z,69.34
2022-12-11T10:14:08.951Z,69.88
2022-12-11T10:16:54.650Z,69.71
2022-12-11T10:19:25.893Z,70.48
2022-12-11T10:21:53.965Z,69.46
2022-12-11T10:25:09.065Z,70.35
2022-12-11T10:27:28.521Z,69.14
2022-12-11T10:30:02.830Z,70.15
2022-12-11T10:32:40.547Z,69.54
2022-12-11T10:35:12.095Z,69.22
2022-12-11T10:37:39.936Z,69.71
2022-12-11T10:40:08.228Z,69.82
2022-12-11T10:42:36.588Z,68.03
2022-12-11T10:45:07.245Z,69.04
2022-12-11T10:47:35.107Z,69.60
2022-12-11T10:50:03.903Z,69.17
2022-12-11T10:52:40.950Z,67.91
2022-12-11T10:55:21.897Z,69.38
2022-12-11T10:57:58.755Z,68.68
2022-12-11T11:00:38.723Z,67.97
2022-12-11T11:03:19.131Z,68.55
2022-12-11T11:05:49.526Z,68.74
2022-12-11T11:08:25.125Z,67.71
2022-12-11T11:10:58.231Z,67.04
2022-12-11T11:13:31.215Z,66.80
2022-12-11T11:16:01.510Z,67.14
2022-12-11T11:18:29.971Z,67.56
2022-12-11T11:20:57.432Z,67.20
2022-12-11T11:23:25.461Z,66.79
2022-12-11T11:25:57.547Z,67.20
2022-12-11T11:28:27.823Z,67.44
2022-12-11T11:30:58.945Z,67.72
2022-12-11T11:33:26.684Z,66.94
2022-12-11T11:36:17.203Z,66.93
2022-12-11T11:38:49.272Z,67.18
2022-12-11T11:41:30.292Z,67.08
2022-12-11T11:43:59.769Z,67.31
2022-12-11T11:46:37.857Z,67.01
2022-12-11T11:49:13.926Z,66.29
2022-12-11T11:52:04.324Z,66.45
2022-12-11T11:54:35.697Z,65.13
2022-12-11T11:57:13.147Z,66.57
2022-12-11T11:59:44.503Z,66.68
2022-12-11T12:02:17.108Z,65.53
2022-12-11T12:04:45.895Z,64.98
2022-12-11T12:07:31.591Z,64.72
2022-12-11T12:10:04.203Z,65.04
2022-12-11T12:12:53.829Z,64.65
2022-12-11T12:15:30.617Z,64.60
2022-12-11T12:18:08.823Z,64.43
2022-12-11T12:20:48.732Z,64.63
2022-12-11T12:23:44.954Z,64.68
2022-12-11T12:26:31.818Z,64.46
2022-12-11T12:29:27.010Z,64.38
2022-12-11T12:32:22.797Z,63.59
2022-12-11T12:35:00.040Z,64.28
2022-12-11T12:37:48.443Z,63.86
2022-12-11T12:40:21.552Z,64.36
2022-12-11T12:43:02.660Z,62.14
2022-12-11T12:45:42.374Z,64.06
2022-12-11T12:48:10.360Z,63.53
2022-12-11T12:50:41.891Z,62.92
2022-12-11T12:53:14.344Z,63.16
2022-12-11T12:55:42.239Z,63.65
2022-12-11T12:58:26.343Z,64.63
2022-12-11T13:00:54.769Z,63.83
2022-12-11T13:03:30.350Z,62.63
2022-12-11T13:06:03.273Z,62.93
2022-12-11T13:08:50.367Z,61.88
2022-12-11T13:11:19.829Z,61.28
2022-12-11T13:14:00.398Z,61.59
2022-12-11T13:16:39.348Z,62.04
2022-12-11T13:19:28.328Z,61.52
2022-12-11T13:21:57.394Z,61.72
2022-12-11T13:24:27.253Z,61.54
2022-12-11T13:26:54.946Z,61.68
2022-12-11T13:29:31.863Z,62.41
2022-12-11T13:32:01.686Z,62.00
2022-12-11T13:34:33.275Z,61.57
2022-12-11T13:37:01.778Z,61.86
2022-12-11T13:39:31.660Z,62.52
2022-12-11T13:42:02.996Z,62.74
2022-12-11T13:44:34.000Z,62.99
2022-12-11T13:47:02.801Z,62.03
2022-12-11T13:49:35.394Z,62.53
2022-12-11T13:52:04.544Z,62.96
2022-12-11T13:54:33.898Z,62.15
2022-12-11T13:57:06.127Z,62.39
2022-12-11T13:59:36.496Z,61.98
2022-12-11T14:02:13.338Z,61.70
2022-12-11T14:04:41.199Z,62.24
2022-12-11T14:07:09.559Z,63.42
2022-12-11T14:09:43.727Z,62.47
2022-12-11T14:12:30.485Z,61.91
2022-12-11T14:15:00.022Z,62.00
2022-12-11T14:17:33.317Z,63.42
2022-12-11T14:20:02.143Z,64.05
2022-12-11T14:22:30.686Z,62.89
2022-12-11T14:25:02.662Z,62.90
2022-12-11T14:27:31.162Z,62.35
2022-12-11T14:30:10.642Z,63.16
2022-12-11T14:32:43.280Z,62.72
2022-12-11T14:35:21.683Z,61.85
2022-12-11T14:37:49.489Z,62.07
2022-12-11T14:40:19.810Z,61.72
2022-12-11T14:42:54.413Z,62.25
2022-12-11T14:45:37.404Z,61.61
2022-12-11T14:48:13.907Z,61.53
2022-12-11T14:50:48.347Z,61.36
2022-12-11T14:53:19.587Z,61.57
2022-12-11T14:55:48.807Z,60.73
2022-12-11T14:58:23.072Z,61.06
2022-12-11T15:01:05.212Z,61.64
2022-12-11T15:03:38.474Z,62.90
2022-12-11T15:06:28.183Z,62.56
2022-12-11T15:08:55.790Z,62.43
2022-12-11T15:11:24.986Z,62.46
2022-12-11T15:13:55.159Z,61.58
2022-12-11T15:16:24.799Z,61.64
2022-12-11T15:18:53.829Z,61.75
2022-12-11T15:21:37.640Z,61.71
2022-12-11T15:24:07.004Z,62.06
2022-12-11T15:26:38.691Z,61.98
2022-12-11T15:29:25.218Z,63.09
2022-12-11T15:32:19.906Z,62.04
2022-12-11T15:34:58.480Z,62.08
2022-12-11T15:37:32.807Z,62.13
2022-12-11T15:40:01.691Z,61.28
2022-12-11T15:42:40.306Z,61.52
2022-12-11T15:45:14.639Z,62.20
2022-12-11T15:47:42.803Z,62.40
2022-12-11T15:50:17.277Z,62.49
2022-12-11T15:52:45.124Z,62.06
2022-12-11T15:55:13.329Z,62.05
2022-12-11T15:57:45.792Z,61.55
2022-12-11T16:00:15.081Z,61.30
2022-12-11T16:02:43.218Z,61.60
2022-12-11T16:05:10.914Z,60.75
2022-12-11T16:07:38.583Z,61.35
2022-12-11T16:10:07.603Z,60.71
2022-12-11T16:12:35.012Z,61.15
2022-12-11T16:15:03.361Z,60.57
2022-12-11T16:17:31.467Z,60.22
2022-12-11T16:19:58.812Z,60.51
2022-12-11T16:22:26.152Z,60.45
2022-12-11T16:24:54.894Z,59.59
2022-12-11T16:27:23.403Z,59.81
2022-12-11T16:29:51.394Z,60.35
2022-12-11T16:32:20.317Z,61.02
2022-12-11T16:34:47.722Z,62.71
2022-12-11T16:37:15.246Z,62.17
2022-12-11T16:39:44.861Z,62.23
2022-12-11T16:42:12.443Z,63.22
2022-12-11T16:44:43.952Z,61.94
2022-12-11T16:47:11.962Z,61.43
2022-12-11T16:49:39.333Z,61.69
2022-12-11T16:52:06.639Z,61.48
2022-12-11T16:54:34.237Z,61.34
2022-12-11T16:57:01.603Z,61.70
2022-12-11T16:59:31.071Z,61.92
2022-12-11T17:02:01.443Z,62.36
2022-12-11T17:04:28.923Z,61.99
2022-12-11T17:06:56.227Z,61.47
2022-12-11T17:09:23.852Z,61.56
2022-12-11T17:11:53.895Z,60.83
2022-12-11T17:14:21.199Z,60.59
2022-12-11T17:16:48.847Z,60.78
2022-12-11T17:19:16.700Z,60.33
2022-12-11T17:21:51.166Z,61.32
2022-12-11T17:24:19.106Z,61.07
2022-12-11T17:26:46.594Z,61.72
2022-12-11T17:29:14.046Z,61.97
2022-12-11T17:31:41.838Z,62.25
2022-12-11T17:34:09.143Z,61.47
2022-12-11T17:36:36.436Z,61.00
2022-12-11T17:39:04.187Z,60.28
2022-12-11T17:41:31.563Z,59.89
2022-12-11T17:43:58.896Z,61.94
2022-12-11T17:46:26.756Z,59.57
2022-12-11T17:48:54.126Z,58.58
2022-12-11T17:51:23.881Z,59.21
2022-12-11T17:53:55.279Z,59.98
2022-12-11T17:56:23.860Z,61.22
2022-12-11T17:58:51.182Z,60.46
2022-12-11T18:01:19.091Z,61.80
2022-12-11T18:03:47.080Z,60.54
2022-12-11T18:06:15.668Z,60.85
2022-12-11T18:08:44.398Z,61.66
2022-12-11T18:11:15.294Z,61.23
2022-12-11T18:13:43.936Z,61.32
2022-12-11T18:16:17.565Z,62.42
2022-12-11T18:18:46.394Z,62.61
2022-12-11T18:21:19.829Z,62.92
2022-12-11T18:23:47.522Z,62.00
2022-12-11T18:26:15.137Z,61.78
2022-12-11T18:28:42.747Z,61.69
2022-12-11T18:31:11.063Z,62.31
2022-12-11T18:33:40.468Z,62.01
2022-12-11T18:36:09.214Z,62.55
2022-12-11T18:38:37.159Z,62.84
2022-12-11T18:41:06.580Z,63.08
2022-12-11T18:43:34.516Z,63.16
2022-12-11T18:46:10.968Z,63.04
2022-12-11T18:48:38.602Z,63.44
2022-12-11T18:51:12.361Z,63.39
2022-12-11T18:53:40.595Z,63.91
2022-12-11T18:56:16.926Z,63.34
2022-12-11T18:58:45.060Z,63.54
2022-12-11T19:01:24.270Z,62.77
2022-12-11T19:03:58.868Z,62.74
2022-12-11T19:06:30.330Z,62.91
2022-12-11T19:08:59.077Z,64.05
2022-12-11T19:11:28.244Z,63.57
2022-12-11T19:13:58.881Z,63.18
2022-12-11T19:16:33.643Z,63.91
2022-12-11T19:19:05.266Z,64.36
2022-12-11T19:21:35.367Z,63.23
2022-12-11T19:24:03.848Z,63.67
2022-12-11T19:26:31.150Z,63.20
2022-12-11T19:29:00.159Z,62.62
2022-12-11T19:31:29.558Z,63.02
2022-12-11T19:33:57.237Z,63.70
2022-12-11T19:36:27.018Z,64.12
2022-12-11T19:39:00.931Z,64.05
2022-12-11T19:41:30.197Z,64.77
2022-12-11T19:43:59.065Z,65.23
2022-12-11T19:46:27.008Z,64.47
2022-12-11T19:48:56.578Z,64.76
2022-12-11T19:51:26.774Z,64.82
2022-12-11T19:53:54.218Z,65.08
2022-12-11T19:56:21.785Z,64.73
2022-12-11T19:58:49.922Z,65.14
2022-12-11T20:01:25.872Z,64.60
2022-12-11T20:03:54.089Z,64.48
2022-12-11T20:06:22.260Z,65.12
2022-12-11T20:08:49.977Z,64.98
2022-12-11T20:11:18.926Z,64.21
2022-12-11T20:13:50.171Z,64.60
2022-12-11T20:16:28.877Z,64.54
2022-12-11T20:19:08.303Z,65.05
2022-12-11T20:21:35.883Z,64.19
2022-12-11T20:24:03.283Z,64.33
2022-12-11T20:26:32.466Z,64.12
2022-12-11T20:29:00.142Z,64.58
2022-12-11T20:31:27.606Z,64.83
2022-12-11T20:33:56.263Z,65.44
2022-12-11T20:36:25.355Z,66.41
2022-12-11T20:38:53.218Z,65.62
2022-12-11T20:41:22.352Z,65.65
2022-12-11T20:43:50.716Z,65.86
2022-12-11T20:46:18.618Z,66.70
2022-12-11T20:48:46.735Z,66.62
2022-12-11T20:51:20.871Z,66.87
2022-12-11T20:53:57.463Z,66.84
2022-12-11T20:56:29.919Z,66.73
2022-12-11T20:58:58.680Z,66.63
2022-12-11T21:01:28.260Z,66.93
2022-12-11T21:03:56.372Z,65.98
2022-12-11T21:06:30.694Z,64.64
2022-12-11T21:09:00.374Z,65.03
2022-12-11T21:11:27.840Z,65.75
2022-12-11T21:13:55.280Z,66.45
2022-12-11T21:16:23.425Z,65.21
2022-12-11T21:18:50.975Z,65.67
2022-12-11T21:21:18.354Z,65.66
2022-12-11T21:23:46.059Z,64.80
2022-12-11T21:26:13.910Z,65.77
2022-12-11T21:28:41.400Z,66.35
2022-12-11T21:31:12.539Z,65.45
2022-12-11T21:33:39.970Z,66.66
2022-12-11T21:36:09.177Z,65.49
2022-12-11T21:38:36.954Z,67.86
2022-12-11T21:41:20.118Z,68.43
2022-12-11T21:46:36.297Z,66.82
2022-12-11T21:49:04.246Z,68.94
2022-12-11T21:51:37.109Z,68.94
2022-12-11T21:54:06.633Z,69.02
2022-12-11T21:56:34.102Z,69.19
2022-12-11T21:59:01.881Z,68.61
2022-12-11T22:01:38.452Z,69.17
2022-12-11T22:04:06.508Z,68.72
2022-12-11T22:06:34.452Z,70.54
2022-12-11T22:09:02.387Z,69.25
2022-12-11T22:11:31.491Z,69.95
2022-12-11T22:13:58.952Z,68.96
2022-12-11T22:16:26.429Z,69.19
2022-12-11T22:18:54.171Z,70.14
2022-12-11T22:21:21.463Z,69.85
2022-12-11T22:23:48.812Z,71.67
2022-12-11T22:26:19.404Z,70.62
2022-12-11T22:28:47.113Z,70.68
2022-12-11T22:31:16.682Z,70.39
2022-12-11T22:33:44.724Z,69.69
2022-12-11T22:36:12.347Z,70.10
2022-12-11T22:38:39.907Z,71.20
2022-12-11T22:41:21.903Z,71.82
2022-12-11T22:43:49.816Z,71.07
2022-12-11T22:46:18.904Z,72.57
2022-12-11T22:48:46.596Z,72.12
2022-12-11T22:51:14.439Z,71.46
2022-12-11T22:53:42.067Z,71.17
2022-12-11T22:56:10.879Z,71.46
2022-12-11T22:58:38.816Z,70.48
2022-12-11T23:01:12.864Z,71.97
2022-12-11T23:03:40.433Z,69.42
2022-12-11T23:06:11.165Z,69.53
2022-12-11T23:08:39.493Z,69.65
2022-12-11T23:11:20.082Z,68.93
2022-12-11T23:13:47.692Z,69.58
2022-12-11T23:16:15.190Z,70.32
2022-12-11T23:18:43.121Z,68.91
2022-12-11T23:21:11.765Z,70.23
2022-12-11T23:23:39.583Z,69.78
2022-12-11T23:26:08.528Z,69.90
2022-12-11T23:28:36.233Z,70.10
2022-12-11T23:31:04.061Z,68.81
2022-12-11T23:33:31.447Z,69.82
2022-12-11T23:35:59.269Z,69.63
2022-12-11T23:38:27.240Z,71.02
2022-12-11T23:40:54.990Z,70.44
2022-12-11T23:43:22.779Z,70.69
2022-12-11T23:45:50.156Z,68.40
2022-12-11T23:48:17.761Z,68.51
2022-12-11T23:50:45.485Z,68.11
2022-12-11T23:53:12.814Z,68.08
2022-12-11T23:55:41.945Z,68.69
2022-12-11T23:58:10.713Z,67.42
